Argent Gerbera — V7UC4 — position and weather

sailwx.info

Track history (hours):
 
Tides and Currents Weather Stations Pressure Air Temp Water Temp Dewpoint Dewpoint Depression Visibility Wind Speed Wind Dir Waves Ship Positions

Argent Gerbera

Last reported at 2018-Apr-21 07:07 UTC. Time now 2018-Apr-22 02:27 UTC.
Position N 49°36' W 003°55'.

Length 175 m; draft 9.7 m.

Type: Ship (hazmat cat B). MMSI: 538003929.

Date/timePositionNaut miles runAvg speedWind from/ knotsBaromVisibWave heightAir tempDewpointWater temp
2018-Apr-21 07:07N 49°36' W 003°55'113.8
2018-Apr-21 07:00N 49°36' W 003°53'714.1
2018-Apr-21 06:30N 49°40' W 003°43'714.7
2018-Apr-21 06:00N 49°44' W 003°34'815.2
2018-Apr-21 05:30N 49°48' W 003°24'815.9
2018-Apr-21 05:00N 49°52' W 003°13'816.3
2018-Apr-21 04:30N 49°56' W 003°03'816.2
2018-Apr-21 04:00N 49°59' W 002°51'816.3
2018-Apr-21 03:30N 50°01' W 002°38'815.8
2018-Apr-21 03:00N 50°03' W 002°26'815.2
2018-Apr-21 02:30N 50°05' W 002°15'714.5
2018-Apr-21 02:00N 50°07' W 002°04'713.6
2018-Apr-21 01:30N 50°09' W 001°54'612.7
2018-Apr-21 01:00N 50°11' W 001°44'611.9
2018-Apr-21 00:30N 50°12' W 001°35'611.4
2018-Apr-21 00:00N 50°14' W 001°27'611.0
2018-Apr-20 23:30N 50°17' W 001°19'510.8
2018-Apr-20 23:00N 50°18' W 001°11'510.7
2018-Apr-20 22:30N 50°19' W 001°03'611.4
2018-Apr-20 22:00N 50°21' W 000°54'612.5
2018-Apr-20 21:30N 50°23' W 000°45'713.3
2018-Apr-20 21:00N 50°25' W 000°35'714.1
2018-Apr-20 20:30N 50°27' W 000°25'714.7
2018-Apr-20 20:01N 50°29' W 000°13'815.2
2018-Apr-20 19:30N 50°31' W 000°02'815.6
2018-Apr-20 19:01N 50°33' E 000°10'815.7
2018-Apr-20 18:31N 50°35' E 000°22'815.5
2018-Apr-20 18:01N 50°37' E 000°34'714.9
2018-Apr-20 17:31N 50°40' E 000°45'714.5
2018-Apr-20 17:01N 50°44' E 000°54'713.8
2018-Apr-20 16:30N 50°48' E 001°03'713.1
2018-Apr-20 16:00N 50°52' E 001°11'612.2
2018-Apr-20 15:30N 50°55' E 001°19'611.5
2018-Apr-20 15:00N 50°60' E 001°25'611.7
2018-Apr-20 14:30N 51°04' E 001°31'612.1
2018-Apr-20 14:00N 51°08' E 001°38'612.7
2018-Apr-20 13:30N 51°13' E 001°45'714.0
2018-Apr-20 13:00N 51°19' E 001°51'715.0
2018-Apr-20 12:30N 51°25' E 001°58'815.8
2018-Apr-20 12:00N 51°31' E 002°06'816.2
2018-Apr-20 11:30N 51°37' E 002°15'816.3
2018-Apr-20 11:00N 51°43' E 002°23'816.1
2018-Apr-20 10:30N 51°49' E 002°32'815.8
2018-Apr-20 10:00N 51°57' E 002°35'1315.2
2018-Apr-20 09:10N 52°10' E 002°37'314.1
2018-Apr-20 09:00N 52°12' E 002°38'714.2
2018-Apr-20 08:29N 52°19' E 002°44'713.7
2018-Apr-20 08:00N 52°25' E 002°48'713.3
2018-Apr-20 07:27N 52°31' E 002°54'21313.6
2018-Apr-19 15:49N 55°35' E 005°55'414.0
2018-Apr-19 15:30N 55°39' E 005°59'714.1
2018-Apr-19 14:59N 55°46' E 006°05'714.1
2018-Apr-19 14:30N 55°52' E 006°10'714.1
2018-Apr-19 14:00N 55°58' E 006°16'814.1
2018-Apr-19 13:27N 56°05' E 006°22'714.1
2018-Apr-19 12:59N 56°11' E 006°27'714.0
2018-Apr-19 12:28N 56°17' E 006°34'5513.8
2018-Apr-19 08:31N 57°05' E 007°20'213.5
2018-Apr-19 08:21N 57°07' E 007°22'4513.1
2018-Apr-19 04:54N 57°33' E 008°31'2713.2
2018-Apr-19 02:53N 57°43' E 009°17'3213.6
2018-Apr-19 00:32N 57°54' E 010°13'013.0
2018-Apr-19 00:30N 57°54' E 010°14'814.5
2018-Apr-18 23:58N 57°54' E 010°28'1314.1
2018-Apr-18 23:02N 57°54' E 010°53'013.3
2018-Apr-18 23:01N 57°54' E 010°54'612.8
2018-Apr-18 22:31N 57°50' E 011°03'713.9
2018-Apr-18 22:00N 57°44' E 011°11'714.2
2018-Apr-18 21:30N 57°38' E 011°18'713.8
2018-Apr-18 21:00N 57°32' E 011°23'714.0
2018-Apr-18 20:30N 57°26' E 011°28'714.0
2018-Apr-18 20:00N 57°19' E 011°32'714.1
2018-Apr-18 19:30N 57°12' E 011°36'714.1
2018-Apr-18 19:00N 57°06' E 011°41'713.9
2018-Apr-18 18:31N 56°59' E 011°45'713.6
2018-Apr-18 18:00N 56°53' E 011°50'713.6
2018-Apr-18 17:28N 56°46' E 011°54'613.8
2018-Apr-18 17:00N 56°40' E 011°48'814.4
2018-Apr-18 16:26N 56°33' E 011°41'7412.5
2018-Apr-18 10:28N 55°22' E 011°02'813.5
2018-Apr-18 09:53N 55°14' E 011°06'512.2
2018-Apr-18 09:30N 55°10' E 011°02'713.2
2018-Apr-18 09:00N 55°04' E 010°60'613.0
2018-Apr-18 08:30N 54°58' E 010°56'713.5
2018-Apr-18 08:00N 54°52' E 010°50'713.4
2018-Apr-18 07:30N 54°45' E 010°48'611.1
2018-Apr-18 07:00N 54°40' E 010°49'713.2
2018-Apr-18 06:31N 54°36' E 010°58'713.5
2018-Apr-18 06:00N 54°36' E 011°10'713.7
2018-Apr-18 05:30N 54°33' E 011°20'713.8
2018-Apr-18 05:00N 54°30' E 011°31'713.7
2018-Apr-18 04:30N 54°28' E 011°42'713.5
2018-Apr-18 04:00N 54°26' E 011°54'713.9
2018-Apr-18 03:31N 54°27' E 012°05'611.5
2018-Apr-18 03:00N 54°30' E 012°13'713.5
2018-Apr-18 02:30N 54°36' E 012°18'1313.8
2018-Apr-18 01:36N 54°44' E 012°36'413.9
2018-Apr-18 01:18N 54°46' E 012°42'1514.0
2018-Apr-18 00:14N 54°52' E 013°05'514.1
2018-Apr-17 23:52N 54°53' E 013°14'813.8
2018-Apr-17 23:18N 54°56' E 013°27'813.6
2018-Apr-17 22:42N 54°59' E 013°40'513.4
2018-Apr-17 22:20N 55°01' E 013°48'513.7
2018-Apr-17 21:59N 55°02' E 013°56'813.6
2018-Apr-17 21:25N 55°06' E 014°07'714.0
2018-Apr-17 20:57N 55°11' E 014°15'714.3
2018-Apr-17 20:29N 55°16' E 014°22'714.1
2018-Apr-17 20:00N 55°22' E 014°30'714.2
2018-Apr-17 19:30N 55°27' E 014°39'713.6
2018-Apr-17 19:00N 55°30' E 014°49'713.6
2018-Apr-17 18:30N 55°33' E 014°60'713.8
2018-Apr-17 18:00N 55°36' E 015°11'713.8
2018-Apr-17 17:30N 55°38' E 015°22'713.8
2018-Apr-17 17:00N 55°39' E 015°34'713.7
2018-Apr-17 16:30N 55°41' E 015°46'713.7
2018-Apr-17 16:00N 55°43' E 015°57'713.6
2018-Apr-17 15:30N 55°45' E 016°09'713.7
2018-Apr-17 15:00N 55°46' E 016°21'713.5
2018-Apr-17 14:30N 55°49' E 016°32'713.9
2018-Apr-17 14:01N 55°50' E 016°44'713.8
2018-Apr-17 13:29N 55°52' E 016°57'713.8
2018-Apr-17 12:59N 55°54' E 017°09'713.7
2018-Apr-17 12:30N 55°56' E 017°20'21513.1
2018-Apr-16 20:07N 59°12' E 020°04'214.6
2018-Apr-16 20:00N 59°14' E 020°04'714.4
2018-Apr-16 19:31N 59°21' E 020°04'714.3
2018-Apr-16 18:59N 59°28' E 020°04'1113.4
2018-Apr-16 18:08N 59°39' E 019°55'214.0
2018-Apr-16 17:59N 59°40' E 019°52'714.5
2018-Apr-16 17:30N 59°45' E 019°43'714.6
2018-Apr-16 17:00N 59°51' E 019°33'714.5
2018-Apr-16 16:30N 59°57' E 019°24'714.5
2018-Apr-16 16:00N 60°02' E 019°15'714.4
2018-Apr-16 15:30N 60°08' E 019°05'713.7
2018-Apr-16 15:00N 60°14' E 019°01'714.5
2018-Apr-16 14:30N 60°21' E 018°60'714.4
2018-Apr-16 14:00N 60°29' E 018°59'1014.1
2018-Apr-16 13:19N 60°38' E 018°59'1314.1
2018-Apr-16 12:24N 60°47' E 019°19'  
2018-Apr-14 01:20N 60°32' E 019°07'1113.9
2018-Apr-14 00:34N 60°22' E 019°01'314.6
2018-Apr-14 00:20N 60°18' E 019°01'514.6
2018-Apr-14 00:00N 60°14' E 019°02'714.6
2018-Apr-13 23:30N 60°07' E 019°10'714.8
2018-Apr-13 23:00N 60°02' E 019°20'814.9
2018-Apr-13 22:30N 59°57' E 019°30'714.9
2018-Apr-13 22:00N 59°51' E 019°40'715.0
2018-Apr-13 21:30N 59°45' E 019°50'815.1
2018-Apr-13 21:00N 59°40' E 019°60'715.0
2018-Apr-13 20:30N 59°34' E 020°09'714.3
2018-Apr-13 20:00N 59°27' E 020°10'714.8
2018-Apr-13 19:30N 59°19' E 020°10'714.8
2018-Apr-13 19:00N 59°12' E 020°10'714.9
2018-Apr-13 18:30N 59°05' E 020°10'714.6
2018-Apr-13 18:00N 58°57' E 020°10'714.7
2018-Apr-13 17:31N 58°50' E 020°10'714.9
2018-Apr-13 17:00N 58°43' E 020°09'814.8
2018-Apr-13 16:29N 58°35' E 020°09'19512.8
2018-Apr-13 01:12N 55°49' E 016°58'313.6
2018-Apr-13 01:00N 55°48' E 016°54'713.6
2018-Apr-13 00:30N 55°47' E 016°42'813.6
2018-Apr-12 23:55N 55°45' E 016°28'713.5
2018-Apr-12 23:25N 55°43' E 016°16'713.6
2018-Apr-12 22:55N 55°41' E 016°05'613.6
2018-Apr-12 22:27N 55°39' E 015°54'613.4
2018-Apr-12 22:00N 55°38' E 015°44'713.3
2018-Apr-12 21:30N 55°37' E 015°32'713.3
2018-Apr-12 21:00N 55°35' E 015°21'713.1
2018-Apr-12 20:30N 55°32' E 015°11'612.8
2018-Apr-12 20:00N 55°29' E 015°01'612.8
2018-Apr-12 19:30N 55°26' E 014°50'713.1
2018-Apr-12 19:00N 55°23' E 014°40'713.2
2018-Apr-12 18:30N 55°19' E 014°31'713.0
2018-Apr-12 18:00N 55°14' E 014°25'713.4
2018-Apr-12 17:30N 55°08' E 014°18'713.7
2018-Apr-12 17:00N 55°03' E 014°10'6712.9
2018-Apr-12 11:50N 54°37' E 012°23'1412.5
2018-Apr-12 10:44N 54°25' E 012°11'311.7
2018-Apr-12 10:30N 54°24' E 012°07'1212.8
2018-Apr-12 09:31N 54°24' E 011°45'012.4
2018-Apr-12 09:30N 54°24' E 011°45'612.2
2018-Apr-12 09:00N 54°26' E 011°35'912.8
2018-Apr-12 08:21N 54°31' E 011°23'412.9
2018-Apr-12 08:00N 54°33' E 011°16'612.9
2018-Apr-12 07:30N 54°36' E 011°07'613.0
2018-Apr-12 07:00N 54°40' E 010°57'612.1
2018-Apr-12 06:30N 54°45' E 010°52'713.1
2018-Apr-12 06:00N 54°51' E 010°52'612.5
2018-Apr-12 05:30N 54°57' E 010°57'612.8
2018-Apr-12 05:00N 55°03' E 011°01'713.1
2018-Apr-12 04:30N 55°09' E 011°03'612.0
2018-Apr-12 04:00N 55°15' E 011°05'11212.3
2018-Apr-11 18:54N 57°06' E 011°39'513.8
2018-Apr-11 18:31N 57°11' E 011°35'714.1
2018-Apr-11 18:00N 57°18' E 011°30'714.7
2018-Apr-11 17:31N 57°25' E 011°27'714.8
2018-Apr-11 17:01N 57°31' E 011°33'612.5
2018-Apr-11 16:30N 57°36' E 011°41'0 0.3
2018-Apr-11 15:58N 57°36' E 011°40'0 0.0
2018-Apr-11 15:28N 57°36' E 011°40'0 0.0
2018-Apr-11 14:58N 57°36' E 011°40'0 0.1
2018-Apr-11 14:28N 57°36' E 011°41'0 0.1
2018-Apr-11 13:58N 57°36' E 011°40'1 1.6
2018-Apr-11 13:30N 57°36' E 011°39'4 7.5
2018-Apr-11 13:00N 57°36' E 011°32'611.6
2018-Apr-11 12:30N 57°39' E 011°23'510.6
2018-Apr-11 12:01N 57°42' E 011°15'612.2
2018-Apr-11 11:30N 57°46' E 011°06'612.3
2018-Apr-11 11:00N 57°50' E 010°58'612.3
2018-Apr-11 10:30N 57°54' E 010°49'611.3
2018-Apr-11 10:00N 57°56' E 010°39'612.1
2018-Apr-11 09:30N 57°56' E 010°28'611.9
2018-Apr-11 09:00N 57°56' E 010°17'1011.2
2018-Apr-11 08:09N 57°55' E 009°59'211.4
2018-Apr-11 08:00N 57°55' E 009°56'  
Track history (hours):
 
Tides and Currents Weather Stations Pressure Air Temp Water Temp Dewpoint Dewpoint Depression Visibility Wind Speed Wind Dir Waves Ship Positions

Argent Gerbera

Last reported at 2018-Apr-21 07:07 UTC. Time now 2018-Apr-22 02:27 UTC.
Position N 49°36' W 003°55'.

Length 175 m; draft 9.7 m.

Type: Ship (hazmat cat B). MMSI: 538003929.

Date/timePositionNaut miles runAvg speedWind from/ knotsBaromVisibWave heightAir tempDewpointWater temp
2018-Apr-21 07:07N 49°36' W 003°55'113.8
2018-Apr-21 07:00N 49°36' W 003°53'714.1
2018-Apr-21 06:30N 49°40' W 003°43'714.7
2018-Apr-21 06:00N 49°44' W 003°34'815.2
2018-Apr-21 05:30N 49°48' W 003°24'815.9
2018-Apr-21 05:00N 49°52' W 003°13'816.3
2018-Apr-21 04:30N 49°56' W 003°03'816.2
2018-Apr-21 04:00N 49°59' W 002°51'816.3
2018-Apr-21 03:30N 50°01' W 002°38'815.8
2018-Apr-21 03:00N 50°03' W 002°26'815.2
2018-Apr-21 02:30N 50°05' W 002°15'714.5
2018-Apr-21 02:00N 50°07' W 002°04'713.6
2018-Apr-21 01:30N 50°09' W 001°54'612.7
2018-Apr-21 01:00N 50°11' W 001°44'611.9
2018-Apr-21 00:30N 50°12' W 001°35'611.4
2018-Apr-21 00:00N 50°14' W 001°27'611.0
2018-Apr-20 23:30N 50°17' W 001°19'510.8
2018-Apr-20 23:00N 50°18' W 001°11'510.7
2018-Apr-20 22:30N 50°19' W 001°03'611.4
2018-Apr-20 22:00N 50°21' W 000°54'612.5
2018-Apr-20 21:30N 50°23' W 000°45'713.3
2018-Apr-20 21:00N 50°25' W 000°35'714.1
2018-Apr-20 20:30N 50°27' W 000°25'714.7
2018-Apr-20 20:01N 50°29' W 000°13'815.2
2018-Apr-20 19:30N 50°31' W 000°02'815.6
2018-Apr-20 19:01N 50°33' E 000°10'815.7
2018-Apr-20 18:31N 50°35' E 000°22'815.5
2018-Apr-20 18:01N 50°37' E 000°34'714.9
2018-Apr-20 17:31N 50°40' E 000°45'714.5
2018-Apr-20 17:01N 50°44' E 000°54'713.8
2018-Apr-20 16:30N 50°48' E 001°03'713.1
2018-Apr-20 16:00N 50°52' E 001°11'612.2
2018-Apr-20 15:30N 50°55' E 001°19'611.5
2018-Apr-20 15:00N 50°60' E 001°25'611.7
2018-Apr-20 14:30N 51°04' E 001°31'612.1
2018-Apr-20 14:00N 51°08' E 001°38'612.7
2018-Apr-20 13:30N 51°13' E 001°45'714.0
2018-Apr-20 13:00N 51°19' E 001°51'715.0
2018-Apr-20 12:30N 51°25' E 001°58'815.8
2018-Apr-20 12:00N 51°31' E 002°06'816.2
2018-Apr-20 11:30N 51°37' E 002°15'816.3
2018-Apr-20 11:00N 51°43' E 002°23'816.1
2018-Apr-20 10:30N 51°49' E 002°32'815.8
2018-Apr-20 10:00N 51°57' E 002°35'1315.2
2018-Apr-20 09:10N 52°10' E 002°37'314.1
2018-Apr-20 09:00N 52°12' E 002°38'714.2
2018-Apr-20 08:29N 52°19' E 002°44'713.7
2018-Apr-20 08:00N 52°25' E 002°48'713.3
2018-Apr-20 07:27N 52°31' E 002°54'21313.6
2018-Apr-19 15:49N 55°35' E 005°55'414.0
2018-Apr-19 15:30N 55°39' E 005°59'714.1
2018-Apr-19 14:59N 55°46' E 006°05'714.1
2018-Apr-19 14:30N 55°52' E 006°10'714.1
2018-Apr-19 14:00N 55°58' E 006°16'814.1
2018-Apr-19 13:27N 56°05' E 006°22'714.1
2018-Apr-19 12:59N 56°11' E 006°27'714.0
2018-Apr-19 12:28N 56°17' E 006°34'5513.8
2018-Apr-19 08:31N 57°05' E 007°20'213.5
2018-Apr-19 08:21N 57°07' E 007°22'4513.1
2018-Apr-19 04:54N 57°33' E 008°31'2713.2
2018-Apr-19 02:53N 57°43' E 009°17'3213.6
2018-Apr-19 00:32N 57°54' E 010°13'013.0
2018-Apr-19 00:30N 57°54' E 010°14'814.5
2018-Apr-18 23:58N 57°54' E 010°28'1314.1
2018-Apr-18 23:02N 57°54' E 010°53'013.3
2018-Apr-18 23:01N 57°54' E 010°54'612.8
2018-Apr-18 22:31N 57°50' E 011°03'713.9
2018-Apr-18 22:00N 57°44' E 011°11'714.2
2018-Apr-18 21:30N 57°38' E 011°18'713.8
2018-Apr-18 21:00N 57°32' E 011°23'714.0
2018-Apr-18 20:30N 57°26' E 011°28'714.0
2018-Apr-18 20:00N 57°19' E 011°32'714.1
2018-Apr-18 19:30N 57°12' E 011°36'714.1
2018-Apr-18 19:00N 57°06' E 011°41'713.9
2018-Apr-18 18:31N 56°59' E 011°45'713.6
2018-Apr-18 18:00N 56°53' E 011°50'713.6
2018-Apr-18 17:28N 56°46' E 011°54'613.8
2018-Apr-18 17:00N 56°40' E 011°48'814.4
2018-Apr-18 16:26N 56°33' E 011°41'7412.5
2018-Apr-18 10:28N 55°22' E 011°02'813.5
2018-Apr-18 09:53N 55°14' E 011°06'512.2
2018-Apr-18 09:30N 55°10' E 011°02'713.2
2018-Apr-18 09:00N 55°04' E 010°60'613.0
2018-Apr-18 08:30N 54°58' E 010°56'713.5
2018-Apr-18 08:00N 54°52' E 010°50'713.4
2018-Apr-18 07:30N 54°45' E 010°48'611.1
2018-Apr-18 07:00N 54°40' E 010°49'713.2
2018-Apr-18 06:31N 54°36' E 010°58'713.5
2018-Apr-18 06:00N 54°36' E 011°10'713.7
2018-Apr-18 05:30N 54°33' E 011°20'713.8
2018-Apr-18 05:00N 54°30' E 011°31'713.7
2018-Apr-18 04:30N 54°28' E 011°42'713.5
2018-Apr-18 04:00N 54°26' E 011°54'713.9
2018-Apr-18 03:31N 54°27' E 012°05'611.5
2018-Apr-18 03:00N 54°30' E 012°13'713.5
2018-Apr-18 02:30N 54°36' E 012°18'1313.8
2018-Apr-18 01:36N 54°44' E 012°36'413.9
2018-Apr-18 01:18N 54°46' E 012°42'1514.0
2018-Apr-18 00:14N 54°52' E 013°05'514.1
2018-Apr-17 23:52N 54°53' E 013°14'813.8
2018-Apr-17 23:18N 54°56' E 013°27'813.6
2018-Apr-17 22:42N 54°59' E 013°40'513.4
2018-Apr-17 22:20N 55°01' E 013°48'513.7
2018-Apr-17 21:59N 55°02' E 013°56'813.6
2018-Apr-17 21:25N 55°06' E 014°07'714.0
2018-Apr-17 20:57N 55°11' E 014°15'714.3
2018-Apr-17 20:29N 55°16' E 014°22'714.1
2018-Apr-17 20:00N 55°22' E 014°30'714.2
2018-Apr-17 19:30N 55°27' E 014°39'713.6
2018-Apr-17 19:00N 55°30' E 014°49'713.6
2018-Apr-17 18:30N 55°33' E 014°60'713.8
2018-Apr-17 18:00N 55°36' E 015°11'713.8
2018-Apr-17 17:30N 55°38' E 015°22'713.8
2018-Apr-17 17:00N 55°39' E 015°34'713.7
2018-Apr-17 16:30N 55°41' E 015°46'713.7
2018-Apr-17 16:00N 55°43' E 015°57'713.6
2018-Apr-17 15:30N 55°45' E 016°09'713.7
2018-Apr-17 15:00N 55°46' E 016°21'713.5
2018-Apr-17 14:30N 55°49' E 016°32'713.9
2018-Apr-17 14:01N 55°50' E 016°44'713.8
2018-Apr-17 13:29N 55°52' E 016°57'713.8
2018-Apr-17 12:59N 55°54' E 017°09'713.7
2018-Apr-17 12:30N 55°56' E 017°20'21513.1
2018-Apr-16 20:07N 59°12' E 020°04'214.6
2018-Apr-16 20:00N 59°14' E 020°04'714.4
2018-Apr-16 19:31N 59°21' E 020°04'714.3
2018-Apr-16 18:59N 59°28' E 020°04'1113.4
2018-Apr-16 18:08N 59°39' E 019°55'214.0
2018-Apr-16 17:59N 59°40' E 019°52'714.5
2018-Apr-16 17:30N 59°45' E 019°43'714.6
2018-Apr-16 17:00N 59°51' E 019°33'714.5
2018-Apr-16 16:30N 59°57' E 019°24'714.5
2018-Apr-16 16:00N 60°02' E 019°15'714.4
2018-Apr-16 15:30N 60°08' E 019°05'713.7
2018-Apr-16 15:00N 60°14' E 019°01'714.5
2018-Apr-16 14:30N 60°21' E 018°60'714.4
2018-Apr-16 14:00N 60°29' E 018°59'1014.1
2018-Apr-16 13:19N 60°38' E 018°59'1314.1
2018-Apr-16 12:24N 60°47' E 019°19'  
2018-Apr-14 01:20N 60°32' E 019°07'1113.9
2018-Apr-14 00:34N 60°22' E 019°01'314.6
2018-Apr-14 00:20N 60°18' E 019°01'514.6
2018-Apr-14 00:00N 60°14' E 019°02'714.6
2018-Apr-13 23:30N 60°07' E 019°10'714.8
2018-Apr-13 23:00N 60°02' E 019°20'814.9
2018-Apr-13 22:30N 59°57' E 019°30'714.9
2018-Apr-13 22:00N 59°51' E 019°40'715.0
2018-Apr-13 21:30N 59°45' E 019°50'815.1
2018-Apr-13 21:00N 59°40' E 019°60'715.0
2018-Apr-13 20:30N 59°34' E 020°09'714.3
2018-Apr-13 20:00N 59°27' E 020°10'714.8
2018-Apr-13 19:30N 59°19' E 020°10'714.8
2018-Apr-13 19:00N 59°12' E 020°10'714.9
2018-Apr-13 18:30N 59°05' E 020°10'714.6
2018-Apr-13 18:00N 58°57' E 020°10'714.7
2018-Apr-13 17:31N 58°50' E 020°10'714.9
2018-Apr-13 17:00N 58°43' E 020°09'814.8
2018-Apr-13 16:29N 58°35' E 020°09'19512.8
2018-Apr-13 01:12N 55°49' E 016°58'313.6
2018-Apr-13 01:00N 55°48' E 016°54'713.6
2018-Apr-13 00:30N 55°47' E 016°42'813.6
2018-Apr-12 23:55N 55°45' E 016°28'713.5
2018-Apr-12 23:25N 55°43' E 016°16'713.6
2018-Apr-12 22:55N 55°41' E 016°05'613.6
2018-Apr-12 22:27N 55°39' E 015°54'613.4
2018-Apr-12 22:00N 55°38' E 015°44'713.3
2018-Apr-12 21:30N 55°37' E 015°32'713.3
2018-Apr-12 21:00N 55°35' E 015°21'713.1
2018-Apr-12 20:30N 55°32' E 015°11'612.8
2018-Apr-12 20:00N 55°29' E 015°01'612.8
2018-Apr-12 19:30N 55°26' E 014°50'713.1
2018-Apr-12 19:00N 55°23' E 014°40'713.2
2018-Apr-12 18:30N 55°19' E 014°31'713.0
2018-Apr-12 18:00N 55°14' E 014°25'713.4
2018-Apr-12 17:30N 55°08' E 014°18'713.7
2018-Apr-12 17:00N 55°03' E 014°10'6712.9
2018-Apr-12 11:50N 54°37' E 012°23'1412.5
2018-Apr-12 10:44N 54°25' E 012°11'311.7
2018-Apr-12 10:30N 54°24' E 012°07'1212.8
2018-Apr-12 09:31N 54°24' E 011°45'012.4
2018-Apr-12 09:30N 54°24' E 011°45'612.2
2018-Apr-12 09:00N 54°26' E 011°35'912.8
2018-Apr-12 08:21N 54°31' E 011°23'412.9
2018-Apr-12 08:00N 54°33' E 011°16'612.9
2018-Apr-12 07:30N 54°36' E 011°07'613.0
2018-Apr-12 07:00N 54°40' E 010°57'612.1
2018-Apr-12 06:30N 54°45' E 010°52'713.1
2018-Apr-12 06:00N 54°51' E 010°52'612.5
2018-Apr-12 05:30N 54°57' E 010°57'612.8
2018-Apr-12 05:00N 55°03' E 011°01'713.1
2018-Apr-12 04:30N 55°09' E 011°03'612.0
2018-Apr-12 04:00N 55°15' E 011°05'11212.3
2018-Apr-11 18:54N 57°06' E 011°39'513.8
2018-Apr-11 18:31N 57°11' E 011°35'714.1
2018-Apr-11 18:00N 57°18' E 011°30'714.7
2018-Apr-11 17:31N 57°25' E 011°27'714.8
2018-Apr-11 17:01N 57°31' E 011°33'612.5
2018-Apr-11 16:30N 57°36' E 011°41'0 0.3
2018-Apr-11 15:58N 57°36' E 011°40'0 0.0
2018-Apr-11 15:28N 57°36' E 011°40'0 0.0
2018-Apr-11 14:58N 57°36' E 011°40'0 0.1
2018-Apr-11 14:28N 57°36' E 011°41'0 0.1
2018-Apr-11 13:58N 57°36' E 011°40'1 1.6
2018-Apr-11 13:30N 57°36' E 011°39'4 7.5
2018-Apr-11 13:00N 57°36' E 011°32'611.6
2018-Apr-11 12:30N 57°39' E 011°23'510.6
2018-Apr-11 12:01N 57°42' E 011°15'612.2
2018-Apr-11 11:30N 57°46' E 011°06'612.3
2018-Apr-11 11:00N 57°50' E 010°58'612.3
2018-Apr-11 10:30N 57°54' E 010°49'611.3
2018-Apr-11 10:00N 57°56' E 010°39'612.1
2018-Apr-11 09:30N 57°56' E 010°28'611.9
2018-Apr-11 09:00N 57°56' E 010°17'1011.2
2018-Apr-11 08:09N 57°55' E 009°59'211.4
2018-Apr-11 08:00N 57°55' E 009°56'  

Dump ship's entire track history